My Meet Scores
Laura Turek, Oak Lawn Pirouette's Gymnastics - MyMeetScores.com
Top100 | Top Teams | Upcoming Meets | Completed Meets | Latest | Add Scores | Help| Support | Bookmark and Share

Laura Turek, Oak Lawn Pirouette's Gymnastics
Personal Bests
LevelVault BarsBeamFloorAA
48.5508.875 9.2758.85035.400
58.6008.550 8.8759.32534.575
69.0509.225 9.5009.47536.325
78.7259.000 9.1509.30035.825
Meet Scores
Date Meet Team Session Level Division Vault Bars Beam Floor AA
2021-04-09 Illinois Level 7 8 State Championships Oak Lawn Pirouettes Gymnastics 2 7 Jr D 8.525 28 8.100 27 9.150 14 9.200 28T 34.975 26
2021-02-26 Kinetic Classic 2021 Oak Lawn Pirouette's Gymnastics 13 7 Younger 8.650 22T 8.850 19 8.800 15 9.225 16T 35.525 23T
2021-02-19 BIG Classic 2021 Oak Lawn Pirouette's Gymnastics 8A 7 Junior B 8.725 6T 9.000 6 8.800 7 9.300 3 35.825 4
2020-02-14 Midwest Open Oak Lawn Pirouette's Gymnastics 07B 6 Junior A 8.475 12T 8.950 7T 9.425 3 9.475 5T 36.325 5
2020-01-31 Big Chill Oak Lawn Pirouette's Gymnastics 1 6 11 8.750 2 9.000 4T 9.000 6 9.375 2 36.125 1
2020-01-24 Uga Invitational Oak Lawn Pirouette's Gymnastics 6A 6 Jr B 8.750 10 8.500 11 9.500 3 9.400 6 36.150 8
2020-01-10 St Jude Benefit Meet Oak Lawn Pirouette's Gymnastics 2B 6 Jr B 8.250 15 8.400 11 9.150 3T 9.400 1 35.200 10T
2019-12-20 2019 Women's Hawaiian Pineapple Classic Oak Lawn Pirouette's Gymnastics 3A 6 Age 11 9.050 3 9.225 2 8.925 6 9.100 9 36.300 2
2019-11-08 Illinois Judges Cup Oak Lawn Pirouette's Gymnastics P1 6 All Ages 8.300 48T 8.800 9T 9.125 13 9.200 18T 35.425 19
2019-03-22 Illinois Gymnastics State Championships Oak Lawn Pirouette's Gymnastics 2 5 JR C 8.600 29 8.250 25 8.400 24 9.325 8 34.575 27
2019-02-23 Kinetic Classic 2019 Oak Lawn Pirouette's Gymnastics 1 5 Younger 7.400 20 8.275 17 8.325 18 8.600 13T 32.600 18
2019-02-01 The Big Chill Oak Lawn Pirouette's Gymnastics 1 5 10 yr olds 0.000 9 8.400 3 8.650 4 9.100 1 34.300 4
2019-01-25 UGA Invitational Oak Lawn Pirouette's Gymnastics A09 5 Jr B 7.700 14 8.550 10 8.600 10 8.550 8 33.400 10
2019-01-11 St Jude Benefit Meet Oak Lawn Pirouette's Gymnastics 8A 5 Jr B 8.350 17 8.500 8T 8.225 10T 9.050 4T 34.125 15
2018-12-14 Hawaiian Pineapple Classic Oak Lawn Pirouette's Gymnastics 4B 5 Age10 7.625 15 8.200 11 8.875 4 8.900 5 33.600 10
2018-03-08 Level 4 & 5 State Oak Lawn Pirouette's Gymnastics All 4 Ch F 8.375 27 8.750 17T 8.825 25 8.750 20T 34.700 24
2018-02-17 Women's Midwest Open Oak Lawn Pirouette's Gymnastics 14 4 Jr B 8.550 10 8.800 6 8.450 7 8.800 7 34.600 8
2018-02-01 The Big Chill Oak Lawn Pirouette's Gymnastics 4 4 9 yr olds 7.825 13T 8.500 7T 8.150 15 8.700 8T 33.175 13
2018-01-26 2018 UGA Classic Oak Lawn Pirouette's Gymnastics AA1 4 Jr B 8.400 12T 8.875 5T 9.275 12 8.850 11 35.400 9
2017-12-14 2017 Women's Hawaiian Pineapple Classic Oak Lawn Pirouette's Gymnastics 6A 4 Age9 7.650 16T 8.275 9 8.275 9 8.600 12 32.800 10
2017-11-10 Illinois NAWGJ Judges Cup 2017 Oak Lawn Pirouette's Gymnastics G2 4 All Ages 8.150 45T 8.100 41T 7.900 47 8.150 44T 32.300 43
Get your scores on
a t-shirt, pin, or hoodie